Route Details

Aircraft Information
Group: North America Light
Types: B738, B752, B762
Route Data
Distance: 575nm
Duration: 2h 04m
Origin METAR: KBOI 010553Z 16007KT 10SM CLR M07/M14 A3036 RMK AO2 SLP318 T10671139 11050 21067 53001
Dest. METAR: KONT 010553Z 06009KT 10SM CLR 12/M12 A3011 RMK AO2 SLP193 T01221122 10150 20122 53015
Freight Data
(for Feb 1, 2023)
Load Factor:
30%
Manifested Cargo: 20,183lbs
Financial History
Total Freight: 162,332lbs
Average Load: 0lbs/flt
Fuel Used: 51,669lbs
Avg. Fuel Used: 0lbs/flt
Fuel Expense: $25,506
Avg. Fuel Expense: $0
Avg. Fuel Cost: $0/lbs
Total Gross Income: $399,337
Pilot Pay: $807
Total Expenses: $81,119
Total Revenue: $290,438
Average Revenue: $0

Capitol Logistics 438




KBOI
Boise Air Terminal/Gowen field
Boise, Idaho
KONT
Ontario International Airport
Ontario, California

Activity Log

Date Flight Route Aircraft Duration
01/29/2023 CPX438 DCT HYVAL DCT REO DCT LLC DCT FRA DCT LANDO DCT PMD ZIGGY7 B738 1h 52m
12/01/2022 CPX438 DCT HYVAL DCT REO DCT OAL J92 BLD DCT NATEE JCKIE2 B752 2h 10m
09/24/2022 CPX438 DCT HYVAL DCT REO J7 FRA DCT LANDO J6 PMD ZIGGY7 B752 1h 56m